Time;durP1;ratioP1;P1;durP2;ratioP2;P2;SDS_P1;SDS_P2;PMS_P1;PMS_P2;Temp;Humidity;BMP_temperature;BMP_pressure;BME280_temperature;BME280_humidity;BME280_pressure;Samples;Min_cycle;Max_cycle;Signal;HPM_P1;HPM_P2
2023/06/06 00:01:11;;;;;;;15.70;8.05;;;;;;;;;;9508059;30;20059;-66
2023/06/06 00:06:05;;;;;;;17.05;7.63;;;;;;;;;;9505884;30;20113;-66
2023/06/06 00:10:57;;;;;;;10.27;8.18;;;;;;;;;;9508851;30;20060;-66
2023/06/06 00:15:53;;;;;;;9.15;8.35;;;;;;;;;;9494618;30;20453;-65
2023/06/06 00:20:48;;;;;;;9.00;7.65;;;;;;;;;;9485247;30;20157;-66
2023/06/06 00:25:41;;;;;;;9.48;8.23;;;;;;;;;;9502387;30;20060;-66
2023/06/06 00:30:35;;;;;;;10.80;9.18;;;;;;;;;;9507755;30;20421;-66
2023/06/06 00:35:28;;;;;;;10.13;7.70;;;;;;;;;;9507704;30;20465;-66
2023/06/06 00:40:22;;;;;;;14.88;9.15;;;;;;;;;;9499552;30;20571;-65
2023/06/06 00:45:17;;;;;;;9.20;8.32;;;;;;;;;;9501730;30;20057;-65
2023/06/06 00:50:12;;;;;;;9.35;7.70;;;;;;;;;;9489944;30;20059;-65
2023/06/06 00:55:07;;;;;;;8.95;8.05;;;;;;;;;;9494720;30;20700;-65
2023/06/06 01:00:00;;;;;;;8.85;7.95;;;;;;;;;;9496187;30;20048;-65
2023/06/06 01:04:57;;;;;;;8.73;7.93;;;;;;;;;;9500147;30;20049;-65
2023/06/06 01:09:50;;;;;;;12.90;7.70;;;;;;;;;;9493374;30;20052;-65
2023/06/06 01:14:55;;;;;;;8.95;8.02;;;;;;;;;;9492259;30;20144;-65
2023/06/06 01:19:49;;;;;;;8.75;7.88;;;;;;;;;;9502866;30;20428;-65
2023/06/06 01:24:44;;;;;;;11.90;8.48;;;;;;;;;;9496856;30;20040;-66
2023/06/06 01:29:37;;;;;;;9.13;8.20;;;;;;;;;;9504030;30;20084;-65
2023/06/06 01:34:39;;;;;;;9.93;8.65;;;;;;;;;;9486727;30;20060;-66
2023/06/06 01:39:34;;;;;;;13.60;9.50;;;;;;;;;;9490978;30;20425;-65
2023/06/06 01:44:30;;;;;;;15.85;10.55;;;;;;;;;;9481961;30;20103;-65
2023/06/06 01:49:25;;;;;;;14.43;10.25;;;;;;;;;;9487323;30;20048;-65
2023/06/06 01:54:18;;;;;;;12.63;9.48;;;;;;;;;;9469418;30;20052;-65
2023/06/06 01:59:12;;;;;;;14.95;11.05;;;;;;;;;;9500434;30;20052;-65
2023/06/06 02:04:05;;;;;;;15.25;8.45;;;;;;;;;;9491045;30;20135;-65
2023/06/06 02:08:58;;;;;;;14.98;8.63;;;;;;;;;;9513243;30;20139;-65
2023/06/06 02:13:52;;;;;;;21.10;8.85;;;;;;;;;;9489565;30;20060;-65
2023/06/06 02:18:45;;;;;;;8.93;7.97;;;;;;;;;;9503768;30;20548;-65
2023/06/06 02:23:39;;;;;;;13.95;7.30;;;;;;;;;;9496536;30;20116;-65
2023/06/06 02:28:33;;;;;;;9.02;7.82;;;;;;;;;;9505331;30;20049;-65
2023/06/06 02:33:28;;;;;;;13.18;7.30;;;;;;;;;;9492367;30;20064;-65
2023/06/06 02:38:22;;;;;;;10.43;7.50;;;;;;;;;;9494221;30;20052;-66
2023/06/06 02:43:16;;;;;;;11.07;7.18;;;;;;;;;;9522419;29;20083;-65
2023/06/06 02:48:09;;;;;;;23.15;10.30;;;;;;;;;;9510416;30;20048;-66
2023/06/06 02:53:02;;;;;;;10.57;7.63;;;;;;;;;;9478874;30;20133;-65
2023/06/06 02:57:57;;;;;;;9.73;7.00;;;;;;;;;;9506685;30;20135;-65
2023/06/06 03:02:50;;;;;;;15.32;8.35;;;;;;;;;;9497817;30;20060;-65
2023/06/06 03:07:43;;;;;;;9.63;8.57;;;;;;;;;;9488518;30;20059;-64
2023/06/06 03:12:36;;;;;;;11.90;8.88;;;;;;;;;;9511595;30;20110;-65
2023/06/06 03:17:30;;;;;;;15.13;9.20;;;;;;;;;;9535904;30;20450;-65
2023/06/06 03:22:24;;;;;;;12.23;8.55;;;;;;;;;;9500035;30;20062;-65
2023/06/06 03:27:18;;;;;;;10.43;8.20;;;;;;;;;;9533427;30;20060;-64
2023/06/06 03:32:12;;;;;;;14.25;8.98;;;;;;;;;;9507876;30;20056;-64
2023/06/06 03:37:06;;;;;;;11.20;8.25;;;;;;;;;;9474115;30;20045;-65
2023/06/06 03:42:00;;;;;;;20.33;9.27;;;;;;;;;;9472585;30;20053;-64
2023/06/06 03:46:54;;;;;;;12.05;8.93;;;;;;;;;;9463833;30;20053;-64
2023/06/06 03:51:48;;;;;;;11.52;8.35;;;;;;;;;;9461017;30;20057;-64
2023/06/06 03:56:42;;;;;;;9.88;8.52;;;;;;;;;;9472829;30;20064;-64
2023/06/06 04:01:35;;;;;;;11.23;8.07;;;;;;;;;;9479986;30;20073;-64
2023/06/06 04:06:29;;;;;;;13.32;7.70;;;;;;;;;;9477046;30;20053;-64
2023/06/06 04:11:23;;;;;;;12.68;7.80;;;;;;;;;;9464848;30;20142;-65
2023/06/06 04:16:16;;;;;;;12.80;8.07;;;;;;;;;;9457780;30;20515;-65
2023/06/06 04:21:11;;;;;;;13.18;8.02;;;;;;;;;;9452168;30;20587;-64
2023/06/06 04:26:05;;;;;;;13.07;7.85;;;;;;;;;;9482530;30;20106;-66
2023/06/06 04:30:59;;;;;;;14.88;7.80;;;;;;;;;;9486516;30;20064;-64
2023/06/06 04:35:57;;;;;;;12.60;8.02;;;;;;;;;;9502803;30;20151;-63
2023/06/06 04:40:53;;;;;;;10.57;8.88;;;;;;;;;;9523504;29;20051;-64
2023/06/06 04:46:06;;;;;;;15.52;9.55;;;;;;;;;;9502434;30;20048;-64
2023/06/06 04:50:59;;;;;;;13.88;9.40;;;;;;;;;;9508616;30;20096;-64
2023/06/06 04:55:56;;;;;;;14.15;9.77;;;;;;;;;;9517887;30;20095;-64
2023/06/06 05:00:50;;;;;;;13.77;8.20;;;;;;;;;;9502147;30;20067;-63
2023/06/06 05:05:47;;;;;;;12.93;9.50;;;;;;;;;;9502978;30;20109;-64
2023/06/06 05:10:40;;;;;;;16.13;9.40;;;;;;;;;;9504083;30;20055;-65
2023/06/06 05:15:34;;;;;;;18.25;10.48;;;;;;;;;;9495625;30;20057;-62
2023/06/06 05:20:29;;;;;;;14.98;9.05;;;;;;;;;;9506058;30;20054;-62
2023/06/06 05:25:23;;;;;;;15.02;9.60;;;;;;;;;;9505173;30;20052;-63
2023/06/06 05:30:16;;;;;;;15.10;11.07;;;;;;;;;;9504212;30;20488;-63
2023/06/06 05:35:09;;;;;;;14.48;11.13;;;;;;;;;;9503394;30;20104;-63
2023/06/06 05:40:03;;;;;;;18.17;13.45;;;;;;;;;;9503497;30;20062;-62
2023/06/06 05:44:57;;;;;;;16.40;14.68;;;;;;;;;;9504113;30;20075;-64
2023/06/06 05:49:51;;;;;;;18.08;14.23;;;;;;;;;;9498113;30;20060;-64
2023/06/06 05:54:44;;;;;;;19.88;15.23;;;;;;;;;;9488756;30;20520;-64
2023/06/06 05:59:51;;;;;;;22.15;14.80;;;;;;;;;;10179266;28;20409;-65
2023/06/06 06:04:45;;;;;;;21.73;17.13;;;;;;;;;;10176451;28;20136;-65
2023/06/06 06:09:38;;;;;;;26.10;18.38;;;;;;;;;;10175930;28;20044;-65
2023/06/06 06:14:32;;;;;;;23.40;16.90;;;;;;;;;;10175139;28;20050;-65
2023/06/06 06:19:25;;;;;;;18.45;15.35;;;;;;;;;;10165536;28;20090;-65
2023/06/06 06:24:19;;;;;;;22.13;15.90;;;;;;;;;;10162190;28;20655;-64
2023/06/06 06:29:13;;;;;;;18.50;16.08;;;;;;;;;;10153262;28;20059;-65
2023/06/06 06:34:05;;;;;;;19.98;16.52;;;;;;;;;;10168788;28;20045;-65
2023/06/06 06:38:59;;;;;;;20.80;16.45;;;;;;;;;;10178263;28;20052;-64
2023/06/06 06:43:53;;;;;;;19.52;16.75;;;;;;;;;;10173456;28;20044;-65
2023/06/06 06:48:50;;;;;;;17.05;13.05;;;;;;;;;;10173365;28;20052;-65
2023/06/06 06:53:44;;;;;;;15.27;11.70;;;;;;;;;;10172935;28;20510;-65
2023/06/06 06:58:39;;;;;;;11.70;9.77;;;;;;;;;;10150592;28;20070;-65
2023/06/06 07:03:35;;;;;;;10.88;8.90;;;;;;;;;;10140269;28;20045;-66
2023/06/06 07:08:45;;;;;;;9.45;8.50;;;;;;;;;;10146968;28;20135;-66
2023/06/06 07:13:38;;;;;;;15.00;10.68;;;;;;;;;;10125525;28;20135;-66
2023/06/06 07:18:32;;;;;;;14.32;10.02;;;;;;;;;;10127719;28;20056;-66
2023/06/06 07:23:25;;;;;;;11.93;9.88;;;;;;;;;;10112661;28;20056;-66
2023/06/06 07:28:19;;;;;;;11.63;9.75;;;;;;;;;;10111056;28;20079;-66
2023/06/06 07:33:12;;;;;;;14.02;9.50;;;;;;;;;;10119150;28;20514;-66
2023/06/06 07:38:07;;;;;;;11.65;10.38;;;;;;;;;;10112655;28;20041;-65
2023/06/06 07:43:01;;;;;;;10.75;9.60;;;;;;;;;;10134597;28;20159;-66
2023/06/06 07:47:55;;;;;;;9.70;8.05;;;;;;;;;;10113793;28;20135;-66
2023/06/06 07:52:49;;;;;;;14.68;9.50;;;;;;;;;;10122447;28;20102;-66
2023/06/06 07:57:45;;;;;;;10.27;9.23;;;;;;;;;;10111699;28;20136;-65
2023/06/06 08:02:40;;;;;;;8.40;7.55;;;;;;;;;;10115773;28;20469;-65
2023/06/06 08:07:38;;;;;;;12.35;8.32;;;;;;;;;;10121331;28;20052;-64
2023/06/06 08:12:32;;;;;;;8.88;7.90;;;;;;;;;;10115429;28;20057;-64
2023/06/06 08:17:25;;;;;;;9.50;7.55;;;;;;;;;;10104916;28;20052;-65
2023/06/06 08:22:19;;;;;;;7.03;6.32;;;;;;;;;;10107185;28;20041;-64
2023/06/06 08:27:12;;;;;;;7.93;6.22;;;;;;;;;;10101195;28;20069;-65
2023/06/06 08:32:08;;;;;;;6.78;6.07;;;;;;;;;;10102881;28;20130;-64
2023/06/06 08:37:02;;;;;;;9.48;6.82;;;;;;;;;;10105405;28;20068;-63
2023/06/06 08:41:56;;;;;;;11.35;10.15;;;;;;;;;;10111686;28;20077;-63
2023/06/06 08:46:51;;;;;;;9.73;8.68;;;;;;;;;;10105289;28;20053;-62
2023/06/06 08:51:49;;;;;;;7.18;6.25;;;;;;;;;;10116470;28;20483;-63
2023/06/06 08:56:44;;;;;;;7.88;7.07;;;;;;;;;;10107795;28;20049;-63
2023/06/06 09:01:41;;;;;;;5.72;5.15;;;;;;;;;;10081153;28;20057;-64
2023/06/06 09:06:38;;;;;;;7.07;6.30;;;;;;;;;;10103603;28;20047;-63
2023/06/06 09:11:31;;;;;;;8.80;5.03;;;;;;;;;;10100240;28;20132;-66
2023/06/06 09:16:26;;;;;;;5.03;4.53;;;;;;;;;;10094201;28;20041;-64
2023/06/06 09:21:20;;;;;;;4.60;4.15;;;;;;;;;;10096529;28;20053;-64
2023/06/06 09:26:20;;;;;;;6.75;3.80;;;;;;;;;;10105169;28;20095;-65
2023/06/06 09:31:23;;;;;;;3.95;3.55;;;;;;;;;;10103030;28;20055;-66
2023/06/06 09:36:17;;;;;;;4.93;4.18;;;;;;;;;;10105758;28;20124;-63
2023/06/06 09:41:10;;;;;;;3.50;2.70;;;;;;;;;;10110892;28;20076;-66
2023/06/06 09:46:07;;;;;;;5.80;4.80;;;;;;;;;;10099320;28;20068;-64
2023/06/06 09:51:01;;;;;;;4.03;3.42;;;;;;;;;;10106821;28;20452;-65
2023/06/06 09:55:57;;;;;;;4.65;3.15;;;;;;;;;;10114288;28;20503;-66
2023/06/06 10:00:52;;;;;;;5.50;3.50;;;;;;;;;;10115959;28;20067;-64
2023/06/06 10:05:47;;;;;;;3.97;3.63;;;;;;;;;;10120444;28;20065;-65
2023/06/06 10:10:46;;;;;;;4.05;3.60;;;;;;;;;;10113498;28;20056;-65
2023/06/06 10:15:40;;;;;;;5.10;4.60;;;;;;;;;;10105034;28;20136;-65
2023/06/06 10:20:35;;;;;;;5.47;4.13;;;;;;;;;;10103140;28;20047;-64
2023/06/06 10:25:29;;;;;;;2.85;2.58;;;;;;;;;;10108585;28;20119;-64
2023/06/06 10:30:58;;;;;;;3.28;2.90;;;;;;;;;;10116672;28;20057;-65
2023/06/06 10:35:56;;;;;;;3.22;2.92;;;;;;;;;;10100502;28;20057;-62
2023/06/06 10:40:53;;;;;;;5.07;3.25;;;;;;;;;;10099362;28;20055;-62
2023/06/06 10:45:50;;;;;;;3.00;2.58;;;;;;;;;;10105871;28;20045;-62
2023/06/06 10:50:52;;;;;;;7.30;2.45;;;;;;;;;;10097478;28;20048;-62
2023/06/06 10:55:46;;;;;;;2.22;2.10;;;;;;;;;;10106852;28;20151;-62
2023/06/06 11:00:47;;;;;;;2.55;2.15;;;;;;;;;;10104023;28;20399;-62
2023/06/06 11:06:08;;;;;;;2.38;1.75;;;;;;;;;;10102008;28;20049;-63
2023/06/06 11:11:19;;;;;;;3.03;2.40;;;;;;;;;;10107440;28;20460;-62
2023/06/06 11:16:13;;;;;;;2.45;1.67;;;;;;;;;;10107252;28;20053;-62
2023/06/06 11:21:06;;;;;;;1.60;1.17;;;;;;;;;;10099847;28;20684;-62
2023/06/06 11:26:02;;;;;;;2.50;1.40;;;;;;;;;;10109949;28;20095;-62
2023/06/06 11:30:58;;;;;;;1.10;1.00;;;;;;;;;;10109396;28;20095;-62
2023/06/06 11:35:58;;;;;;;3.08;1.50;;;;;;;;;;10107982;28;20041;-62
2023/06/06 11:40:52;;;;;;;1.00;0.87;;;;;;;;;;10138630;28;20055;-62
2023/06/06 11:45:45;;;;;;;1.50;1.40;;;;;;;;;;10141770;28;20940;-63
2023/06/06 11:50:38;;;;;;;3.35;1.40;;;;;;;;;;10133342;28;20049;-62
2023/06/06 11:55:38;;;;;;;2.70;1.13;;;;;;;;;;10130065;28;20052;-62
2023/06/06 12:00:33;;;;;;;1.48;1.20;;;;;;;;;;10135889;28;20533;-62
2023/06/06 12:05:26;;;;;;;2.05;1.25;;;;;;;;;;10124272;28;20064;-63
2023/06/06 12:10:24;;;;;;;1.65;1.40;;;;;;;;;;10118242;28;20057;-62
2023/06/06 12:15:17;;;;;;;3.20;1.15;;;;;;;;;;10112419;28;20556;-62
2023/06/06 12:20:23;;;;;;;4.05;2.00;;;;;;;;;;10109738;28;20140;-62
2023/06/06 12:25:26;;;;;;;1.50;1.35;;;;;;;;;;10132372;28;20052;-62
2023/06/06 12:30:51;;;;;;;2.45;1.05;;;;;;;;;;10125758;28;20398;-61
2023/06/06 12:58:34;;;;;;;5.00;1.50;;;;;;;;;;10088262;28;20142;-60
2023/06/06 13:03:28;;;;;;;2.17;1.17;;;;;;;;;;10104546;28;20137;-63
2023/06/06 13:08:22;;;;;;;3.20;1.23;;;;;;;;;;10107422;28;20056;-61
2023/06/06 13:13:30;;;;;;;2.53;0.95;;;;;;;;;;10130598;28;20051;-61
2023/06/06 13:18:23;;;;;;;1.35;1.25;;;;;;;;;;10121761;28;20048;-61
2023/06/06 13:23:17;;;;;;;3.10;1.23;;;;;;;;;;10115195;28;20124;-61
2023/06/06 13:28:11;;;;;;;1.13;1.02;;;;;;;;;;10112718;28;20044;-61
2023/06/06 13:33:05;;;;;;;2.50;1.30;;;;;;;;;;10126393;28;20053;-61
2023/06/06 13:37:59;;;;;;;1.23;0.93;;;;;;;;;;10129224;28;20086;-62
2023/06/06 13:42:54;;;;;;;1.00;0.82;;;;;;;;;;10140727;28;20048;-61
2023/06/06 13:47:48;;;;;;;0.80;0.80;;;;;;;;;;10102908;28;20029;-61
2023/06/06 13:52:43;;;;;;;0.68;0.68;;;;;;;;;;10096937;28;20053;-61
2023/06/06 13:57:40;;;;;;;2.47;0.70;;;;;;;;;;10103507;28;20048;-63
2023/06/06 14:02:33;;;;;;;2.35;1.02;;;;;;;;;;10076523;28;20131;-62
2023/06/06 14:07:27;;;;;;;3.30;1.00;;;;;;;;;;10093231;28;20053;-62
2023/06/06 14:12:23;;;;;;;3.17;1.00;;;;;;;;;;10102067;28;20520;-62
2023/06/06 14:17:19;;;;;;;0.90;0.80;;;;;;;;;;10106775;28;20102;-61
2023/06/06 14:22:29;;;;;;;10.07;1.10;;;;;;;;;;10111210;28;20117;-64
2023/06/06 14:27:24;;;;;;;1.17;0.80;;;;;;;;;;10117171;28;20503;-64
2023/06/06 14:32:19;;;;;;;1.58;1.10;;;;;;;;;;10110913;28;20098;-64
2023/06/06 14:37:12;;;;;;;3.03;1.20;;;;;;;;;;10092269;28;20053;-65
2023/06/06 14:42:08;;;;;;;1.90;1.30;;;;;;;;;;10107986;28;20049;-64
2023/06/06 14:47:05;;;;;;;1.10;1.00;;;;;;;;;;10112831;28;20404;-64
2023/06/06 14:52:00;;;;;;;1.38;1.27;;;;;;;;;;10113046;28;20041;-64
2023/06/06 14:56:54;;;;;;;4.50;1.65;;;;;;;;;;10109251;28;20450;-64
2023/06/06 15:01:48;;;;;;;2.33;1.52;;;;;;;;;;10109569;28;20116;-63
2023/06/06 15:06:41;;;;;;;2.78;1.35;;;;;;;;;;10138987;28;20048;-65
2023/06/06 15:11:34;;;;;;;1.80;1.60;;;;;;;;;;10145689;28;20466;-65
2023/06/06 15:16:28;;;;;;;1.80;1.40;;;;;;;;;;10138076;28;20106;-63
2023/06/06 15:21:23;;;;;;;1.40;1.10;;;;;;;;;;10126985;28;20088;-63
2023/06/06 15:26:17;;;;;;;1.83;1.30;;;;;;;;;;10148689;28;20064;-63
2023/06/06 15:31:10;;;;;;;4.07;1.50;;;;;;;;;;10146894;28;20621;-63
2023/06/06 15:36:05;;;;;;;2.38;1.33;;;;;;;;;;10146526;28;20041;-65
2023/06/06 15:40:59;;;;;;;2.45;1.23;;;;;;;;;;10147502;28;20259;-65
2023/06/06 15:45:52;;;;;;;2.92;1.25;;;;;;;;;;10138254;28;20052;-66
2023/06/06 15:50:45;;;;;;;1.50;1.20;;;;;;;;;;10136517;28;20057;-66
2023/06/06 15:55:40;;;;;;;1.40;1.30;;;;;;;;;;10133612;28;20418;-65
2023/06/06 16:00:33;;;;;;;4.15;1.33;;;;;;;;;;10147370;28;20442;-65
2023/06/06 16:05:26;;;;;;;4.60;1.70;;;;;;;;;;10146288;28;20075;-65
2023/06/06 16:10:20;;;;;;;1.75;1.52;;;;;;;;;;10136323;28;20127;-66
2023/06/06 16:15:15;;;;;;;2.78;1.50;;;;;;;;;;10136597;28;20053;-65
2023/06/06 16:20:11;;;;;;;3.88;1.40;;;;;;;;;;10107353;28;20057;-66
2023/06/06 16:25:06;;;;;;;1.67;1.30;;;;;;;;;;10114110;28;20079;-66
2023/06/06 16:29:59;;;;;;;1.50;1.40;;;;;;;;;;10107981;28;20052;-66
2023/06/06 16:34:53;;;;;;;3.83;1.90;;;;;;;;;;10100285;28;20500;-66
2023/06/06 16:39:47;;;;;;;1.83;1.60;;;;;;;;;;10096825;28;20041;-67
2023/06/06 16:44:40;;;;;;;3.47;1.92;;;;;;;;;;10103509;28;20052;-66
2023/06/06 16:49:34;;;;;;;2.70;1.65;;;;;;;;;;10105336;28;20049;-65
2023/06/06 16:54:29;;;;;;;2.00;1.80;;;;;;;;;;10097153;28;20127;-67
2023/06/06 16:59:24;;;;;;;2.70;2.13;;;;;;;;;;10103773;28;20068;-67
2023/06/06 17:04:18;;;;;;;3.72;1.73;;;;;;;;;;10097126;28;20049;-67
2023/06/06 17:09:13;;;;;;;4.28;1.77;;;;;;;;;;10107043;28;20052;-67
2023/06/06 17:14:07;;;;;;;2.45;1.92;;;;;;;;;;10108682;28;20723;-66
2023/06/06 17:19:01;;;;;;;2.17;1.98;;;;;;;;;;10103153;28;20174;-66
2023/06/06 17:23:54;;;;;;;1.85;1.67;;;;;;;;;;10115376;28;20053;-66
2023/06/06 17:28:47;;;;;;;1.85;1.58;;;;;;;;;;10112903;28;20052;-66
2023/06/06 17:33:41;;;;;;;2.00;1.90;;;;;;;;;;10113662;28;20084;-65
2023/06/06 17:38:34;;;;;;;2.15;1.98;;;;;;;;;;10114449;28;20076;-65
2023/06/06 17:43:27;;;;;;;2.17;1.98;;;;;;;;;;10113064;28;20056;-66
2023/06/06 17:48:20;;;;;;;3.85;2.05;;;;;;;;;;10129833;28;20059;-66
2023/06/06 17:53:15;;;;;;;2.65;2.45;;;;;;;;;;10129286;28;20124;-65
2023/06/06 17:58:08;;;;;;;2.58;2.00;;;;;;;;;;10131226;28;20415;-64
2023/06/06 18:03:02;;;;;;;3.00;2.67;;;;;;;;;;10108830;28;20055;-66
2023/06/06 18:07:56;;;;;;;11.48;3.22;;;;;;;;;;10111184;28;20423;-69
2023/06/06 18:12:49;;;;;;;3.15;2.33;;;;;;;;;;10142878;28;20052;-67
2023/06/06 18:17:47;;;;;;;3.85;2.20;;;;;;;;;;10141964;28;20049;-64
2023/06/06 18:22:41;;;;;;;3.47;3.17;;;;;;;;;;10122200;28;20105;-66
2023/06/06 18:27:36;;;;;;;7.75;2.95;;;;;;;;;;10130271;28;20041;-66
2023/06/06 18:32:29;;;;;;;2.85;2.47;;;;;;;;;;10125123;28;20048;-67
2023/06/06 18:37:23;;;;;;;3.17;2.50;;;;;;;;;;10134102;28;20045;-65
2023/06/06 18:42:16;;;;;;;3.60;2.15;;;;;;;;;;10107265;28;20044;-66
2023/06/06 18:47:12;;;;;;;6.05;2.72;;;;;;;;;;10120531;28;20055;-65
2023/06/06 18:52:06;;;;;;;3.70;3.08;;;;;;;;;;10098175;28;20055;-63
2023/06/06 18:57:05;;;;;;;5.38;2.78;;;;;;;;;;10103389;28;20053;-66
2023/06/06 19:02:00;;;;;;;3.90;3.50;;;;;;;;;;10103977;28;20082;-66
2023/06/06 19:06:54;;;;;;;8.23;4.00;;;;;;;;;;10108970;28;20060;-66
2023/06/06 19:11:47;;;;;;;5.88;3.55;;;;;;;;;;10110151;28;20049;-66
2023/06/06 19:16:40;;;;;;;7.90;3.85;;;;;;;;;;10103125;28;20049;-66
2023/06/06 19:21:36;;;;;;;5.63;3.47;;;;;;;;;;10112381;28;20530;-64
2023/06/06 19:26:30;;;;;;;4.53;3.70;;;;;;;;;;10108696;28;20507;-66
2023/06/06 19:31:23;;;;;;;3.80;3.50;;;;;;;;;;10110515;28;20053;-64
2023/06/06 19:36:17;;;;;;;10.25;3.88;;;;;;;;;;10107394;28;20415;-65
2023/06/06 19:41:11;;;;;;;14.95;5.25;;;;;;;;;;10113564;28;20048;-64
2023/06/06 19:46:05;;;;;;;4.20;3.80;;;;;;;;;;10114386;28;20040;-64
2023/06/06 19:50:58;;;;;;;6.95;4.20;;;;;;;;;;10098318;28;21173;-65
2023/06/06 19:55:51;;;;;;;6.68;3.92;;;;;;;;;;10111786;28;20049;-64
2023/06/06 20:00:45;;;;;;;8.63;5.03;;;;;;;;;;10111850;28;20053;-64
2023/06/06 20:05:39;;;;;;;8.35;4.80;;;;;;;;;;10104012;28;20422;-65
2023/06/06 20:10:33;;;;;;;5.93;4.68;;;;;;;;;;10093455;28;20145;-66
2023/06/06 20:15:26;;;;;;;9.50;5.13;;;;;;;;;;10102037;28;20055;-67
2023/06/06 20:20:20;;;;;;;10.73;6.75;;;;;;;;;;10112352;28;20130;-65
2023/06/06 20:25:15;;;;;;;6.88;5.60;;;;;;;;;;10112398;28;20495;-64
2023/06/06 20:30:14;;;;;;;7.15;5.63;;;;;;;;;;10110168;28;20098;-65
2023/06/06 20:35:09;;;;;;;6.80;4.70;;;;;;;;;;10111934;28;20377;-65
2023/06/06 20:40:20;;;;;;;7.63;5.50;;;;;;;;;;10117311;28;20107;-66
2023/06/06 20:45:15;;;;;;;6.20;4.90;;;;;;;;;;10114776;28;20049;-66
2023/06/06 20:50:11;;;;;;;5.80;5.15;;;;;;;;;;10110637;28;20136;-66
2023/06/06 20:55:09;;;;;;;6.93;5.15;;;;;;;;;;10109145;28;20049;-65
2023/06/06 21:00:10;;;;;;;5.47;4.83;;;;;;;;;;10120819;28;20056;-65
2023/06/06 21:05:08;;;;;;;6.07;5.03;;;;;;;;;;10110467;28;20052;-65
2023/06/06 21:10:02;;;;;;;8.37;4.90;;;;;;;;;;10118886;28;20045;-65
2023/06/06 21:14:59;;;;;;;7.78;5.18;;;;;;;;;;10121133;28;20115;-64
2023/06/06 21:19:53;;;;;;;10.32;5.93;;;;;;;;;;10113541;28;20403;-64
2023/06/06 21:24:50;;;;;;;6.75;6.15;;;;;;;;;;10110987;28;20504;-65
2023/06/06 21:29:44;;;;;;;;;;;;;;;;;;10109118;28;20499;-65
2023/06/06 21:34:39;;;;;;;8.13;6.68;;;;;;;;;;10108330;28;19974;-64
2023/06/06 21:39:37;;;;;;;9.57;6.03;;;;;;;;;;10106465;28;20044;-65
2023/06/06 21:44:32;;;;;;;6.28;5.68;;;;;;;;;;10101933;28;20052;-66
2023/06/06 21:49:27;;;;;;;7.00;6.30;;;;;;;;;;10105963;28;20041;-66
2023/06/06 21:54:21;;;;;;;10.40;6.53;;;;;;;;;;10099240;28;20073;-63
2023/06/06 21:59:15;;;;;;;9.80;6.80;;;;;;;;;;10107592;28;20049;-67
2023/06/06 22:04:08;;;;;;;7.13;6.43;;;;;;;;;;10094214;28;20045;-65
2023/06/06 22:09:03;;;;;;;7.18;6.35;;;;;;;;;;10091361;28;20099;-66
2023/06/06 22:13:57;;;;;;;7.60;6.90;;;;;;;;;;10093304;28;20050;-66
2023/06/06 22:18:52;;;;;;;7.50;6.60;;;;;;;;;;10098763;28;20054;-66
2023/06/06 22:23:46;;;;;;;9.55;8.13;;;;;;;;;;10098915;28;20151;-66
2023/06/06 22:28:41;;;;;;;9.32;7.97;;;;;;;;;;10103463;28;20041;-66
2023/06/06 22:33:38;;;;;;;8.32;7.53;;;;;;;;;;10101593;28;20056;-66
2023/06/06 22:38:31;;;;;;;10.38;7.75;;;;;;;;;;10106362;28;20080;-66
2023/06/06 22:43:25;;;;;;;11.88;9.35;;;;;;;;;;10110288;28;20133;-66
2023/06/06 22:48:18;;;;;;;10.45;9.32;;;;;;;;;;10106029;28;20053;-66
2023/06/06 22:53:11;;;;;;;10.75;7.90;;;;;;;;;;10106400;28;20053;-66
2023/06/06 22:58:05;;;;;;;9.30;8.43;;;;;;;;;;10123757;28;20129;-66
2023/06/06 23:02:58;;;;;;;11.45;8.25;;;;;;;;;;10112799;28;20551;-65
2023/06/06 23:07:53;;;;;;;10.77;9.68;;;;;;;;;;10115065;28;20166;-65
2023/06/06 23:12:46;;;;;;;12.43;9.10;;;;;;;;;;10113154;28;20061;-65
2023/06/06 23:17:40;;;;;;;10.07;9.18;;;;;;;;;;10115419;28;20049;-65
2023/06/06 23:22:33;;;;;;;15.60;10.40;;;;;;;;;;10115978;28;20423;-65
2023/06/06 23:27:34;;;;;;;11.52;10.43;;;;;;;;;;10103082;28;20094;-65
2023/06/06 23:32:27;;;;;;;13.82;10.25;;;;;;;;;;10103414;28;20052;-65
2023/06/06 23:37:21;;;;;;;12.43;11.27;;;;;;;;;;10097807;28;20059;-66
2023/06/06 23:42:15;;;;;;;11.73;10.65;;;;;;;;;;10099752;28;20045;-65
2023/06/06 23:47:08;;;;;;;12.85;11.55;;;;;;;;;;10112238;28;20095;-65
2023/06/06 23:52:05;;;;;;;14.23;10.50;;;;;;;;;;10115667;28;20059;-66
2023/06/06 23:56:59;;;;;;;12.38;11.25;;;;;;;;;;10109293;28;20068;-65
